Time;durP1;ratioP1;P1;durP2;ratioP2;P2;SDS_P1;SDS_P2;PMS_P1;PMS_P2;Temp;Humidity;BMP_temperature;BMP_pressure;BME280_temperature;BME280_humidity;BME280_pressure;Samples;Min_cycle;Max_cycle;Signal;HPM_P1;HPM_P2
2023/02/04 00:01:24;;;;;;;8.70;5.88;;;205.40;2252.80;;;;;;5049988;28;20040;-59
2023/02/04 00:03:51;;;;;;;19.80;14.57;;;205.50;2252.80;;;;;;5049831;28;20021;-60
2023/02/04 00:06:16;;;;;;;9.50;6.00;;;205.60;2252.80;;;;;;5050103;28;20108;-63
2023/02/04 00:08:42;;;;;;;17.67;8.13;;;205.50;2252.80;;;;;;5050019;28;20108;-59
2023/02/04 00:11:08;;;;;;;16.52;8.52;;;205.60;2252.80;;;;;;5049951;28;20079;-60
2023/02/04 00:13:33;;;;;;;14.55;7.28;;;205.60;2252.80;;;;;;5050020;28;20025;-66
2023/02/04 00:15:59;;;;;;;19.77;10.45;;;205.50;2252.80;;;;;;5049875;28;20108;-65
2023/02/04 00:18:25;;;;;;;22.55;11.10;;;205.50;2252.80;;;;;;5053365;28;20474;-59
2023/02/04 00:20:50;;;;;;;89.50;42.33;;;205.60;2252.80;;;;;;5053509;28;20099;-59
2023/02/04 00:23:16;;;;;;;60.92;28.25;;;205.60;2252.80;;;;;;5053722;28;20036;-59
2023/02/04 00:25:42;;;;;;;49.75;21.65;;;205.70;2252.80;;;;;;5053726;28;20039;-60
2023/02/04 00:28:07;;;;;;;8.65;5.57;;;205.70;2252.80;;;;;;5053616;28;20049;-60
2023/02/04 00:30:33;;;;;;;8.50;3.88;;;205.60;2252.80;;;;;;5053627;28;20399;-59
2023/02/04 00:32:59;;;;;;;12.73;6.68;;;205.70;2252.80;;;;;;5053122;28;20079;-68
2023/02/04 00:35:24;;;;;;;17.83;10.10;;;205.60;2252.80;;;;;;5053660;28;20025;-68
2023/02/04 00:37:50;;;;;;;19.40;11.02;;;205.60;2252.80;;;;;;5053318;28;20428;-67
2023/02/04 00:40:16;;;;;;;28.25;16.23;;;205.60;2252.80;;;;;;5053272;28;20505;-62
2023/02/04 00:42:42;;;;;;;31.92;18.40;;;205.70;2252.80;;;;;;5053411;28;20061;-59
2023/02/04 00:45:09;;;;;;;22.85;12.95;;;230.40;2252.80;;;;;;5053368;28;20028;-59
2023/02/04 00:47:35;;;;;;;22.30;12.98;;;230.40;2252.80;;;;;;5053250;28;20029;-60
2023/02/04 00:50:01;;;;;;;18.17;9.30;;;230.40;2252.80;;;;;;5052861;28;20048;-59
2023/02/04 00:52:26;;;;;;;13.52;8.70;;;230.50;2252.80;;;;;;5052970;28;20115;-66
2023/02/04 00:54:52;;;;;;;16.77;9.43;;;230.40;2252.80;;;;;;5052954;28;20463;-67
2023/02/04 00:57:18;;;;;;;15.02;8.55;;;205.70;2252.80;;;;;;5052474;28;20446;-66
2023/02/04 00:59:44;;;;;;;9.75;6.13;;;205.70;2252.80;;;;;;5052712;28;20036;-59
2023/02/04 01:02:10;;;;;;;8.10;5.63;;;205.60;2252.80;;;;;;5052182;28;20514;-67
2023/02/04 01:04:35;;;;;;;9.30;5.82;;;205.50;2252.80;;;;;;5052340;28;20025;-61
2023/02/04 01:07:01;;;;;;;10.05;5.97;;;205.50;2252.80;;;;;;5052621;28;20029;-67
2023/02/04 01:09:27;;;;;;;7.03;4.72;;;205.50;2252.80;;;;;;5052556;28;20159;-59
2023/02/04 01:11:52;;;;;;;8.93;4.78;;;205.50;2252.80;;;;;;5052412;28;20532;-59
2023/02/04 01:14:18;;;;;;;7.65;4.47;;;205.40;2252.80;;;;;;5052049;28;20471;-67
2023/02/04 01:16:44;;;;;;;15.00;9.60;;;205.40;2252.80;;;;;;5052282;28;20025;-59
2023/02/04 01:19:10;;;;;;;6.13;4.63;;;205.30;2252.80;;;;;;5051615;28;20479;-58
2023/02/04 01:21:40;;;;;;;7.88;4.30;;;205.20;2252.80;;;;;;5051950;28;20041;-58
2023/02/04 01:24:05;;;;;;;9.55;7.00;;;205.10;2252.80;;;;;;5052202;28;20029;-60
2023/02/04 01:26:31;;;;;;;9.80;5.40;;;205.10;2252.80;;;;;;5051939;28;20029;-58
2023/02/04 01:28:57;;;;;;;25.65;14.98;;;205.10;2252.80;;;;;;5052203;28;20025;-61
2023/02/04 01:31:22;;;;;;;8.02;5.78;;;205.00;2252.80;;;;;;5051871;28;20028;-63
2023/02/04 01:33:48;;;;;;;9.07;5.20;;;205.00;2252.80;;;;;;5051668;28;20108;-59
2023/02/04 01:36:20;;;;;;;8.18;4.15;;;205.00;2252.80;;;;;;5051829;28;20079;-59
2023/02/04 01:38:46;;;;;;;12.07;7.10;;;204.90;2252.80;;;;;;5052053;28;20021;-58
2023/02/04 01:41:13;;;;;;;9.15;5.60;;;204.90;2252.80;;;;;;5051614;28;20043;-64
2023/02/04 01:43:39;;;;;;;8.25;5.07;;;204.90;2252.80;;;;;;5043613;28;20037;-59
2023/02/04 01:46:05;;;;;;;5.13;3.38;;;180.10;2252.80;;;;;;5040386;28;20113;-59
2023/02/04 01:48:31;;;;;;;5.75;3.58;;;180.10;2252.80;;;;;;5042305;28;20049;-59
2023/02/04 01:51:12;;;;;;;12.43;7.38;;;180.00;2252.80;;;;;;5059983;28;20064;-60
2023/02/04 01:53:39;;;;;;;6.90;3.30;;;180.00;2252.80;;;;;;5070034;28;20041;-59
2023/02/04 01:56:20;;;;;;;18.77;11.90;;;179.90;2252.80;;;;;;5071641;28;20024;-59
2023/02/04 01:58:46;;;;;;;5.85;3.55;;;179.90;2252.80;;;;;;5071513;28;20112;-59
2023/02/04 02:01:31;;;;;;;8.45;6.28;;;179.70;2252.80;;;;;;5070795;28;20037;-60
2023/02/04 02:03:57;;;;;;;14.73;8.55;;;179.80;2252.80;;;;;;5069419;28;20017;-59
2023/02/04 02:06:22;;;;;;;19.27;11.40;;;179.90;2252.80;;;;;;5071338;28;20027;-58
2023/02/04 02:08:48;;;;;;;19.00;12.15;;;179.80;2252.80;;;;;;5070971;28;20470;-60
2023/02/04 02:11:14;;;;;;;54.55;32.40;;;179.90;2252.80;;;;;;5071064;28;20016;-66
2023/02/04 02:13:40;;;;;;;46.20;28.38;;;179.90;2252.80;;;;;;5070994;28;20028;-68
2023/02/04 02:16:05;;;;;;;20.73;11.15;;;179.80;2252.80;;;;;;5070891;28;20021;-68
2023/02/04 02:18:31;;;;;;;56.50;33.28;;;179.90;2252.80;;;;;;5071192;28;20044;-67
2023/02/04 02:21:02;;;;;;;63.92;34.15;;;179.90;2252.80;;;;;;5071290;28;20377;-63
2023/02/04 02:23:47;;;;;;;56.38;32.05;;;179.80;2252.80;;;;;;5071193;28;20059;-59
2023/02/04 02:26:15;;;;;;;9.05;5.60;;;179.80;2252.80;;;;;;5071510;28;20036;-59
2023/02/04 02:28:41;;;;;;;28.20;20.33;;;179.80;2252.80;;;;;;5071013;28;20021;-65
2023/02/04 02:31:07;;;;;;;12.90;8.05;;;179.90;2252.80;;;;;;5071146;28;20032;-60
2023/02/04 02:33:33;;;;;;;8.77;4.45;;;179.80;2252.80;;;;;;5071204;28;20025;-60
2023/02/04 02:35:59;;;;;;;7.60;3.78;;;179.80;2252.80;;;;;;5071095;28;20025;-59
2023/02/04 02:38:25;;;;;;;26.88;14.55;;;179.80;2252.80;;;;;;5071134;28;20028;-60
2023/02/04 02:40:52;;;;;;;9.07;4.10;;;179.80;2252.80;;;;;;5070545;28;20709;-66
2023/02/04 02:43:22;;;;;;;52.92;27.08;;;180.00;2252.80;;;;;;5070910;28;20032;-59
2023/02/04 02:45:48;;;;;;;31.45;16.00;;;180.00;2252.80;;;;;;5070871;28;20028;-59
2023/02/04 02:48:14;;;;;;;6.53;3.42;;;179.90;2252.80;;;;;;5070944;28;20024;-65
2023/02/04 02:50:41;;;;;;;56.50;29.75;;;179.80;2252.80;;;;;;5054115;28;20399;-59
2023/02/04 02:53:16;;;;;;;25.98;11.30;;;179.80;2252.80;;;;;;5050605;28;20033;-59
2023/02/04 02:55:43;;;;;;;14.40;7.60;;;179.90;2252.80;;;;;;5050766;28;20125;-59
2023/02/04 02:58:21;;;;;;;7.63;5.88;;;179.90;2252.80;;;;;;5050639;28;20418;-60
2023/02/04 03:00:46;;;;;;;8.52;5.10;;;179.80;2252.80;;;;;;5051016;28;20056;-59
2023/02/04 03:03:22;;;;;;;13.23;7.15;;;179.80;2252.80;;;;;;5050564;28;20431;-59
2023/02/04 03:05:53;;;;;;;10.98;6.18;;;179.80;2252.80;;;;;;5050558;28;20112;-60
2023/02/04 03:08:19;;;;;;;5.30;2.65;;;180.00;2252.80;;;;;;5050478;28;20025;-59
2023/02/04 03:10:46;;;;;;;11.45;7.28;;;180.00;2252.80;;;;;;5050611;28;20382;-67
2023/02/04 03:13:14;;;;;;;7.88;4.45;;;180.10;2252.80;;;;;;5050393;28;20032;-60
2023/02/04 03:15:41;;;;;;;25.92;13.02;;;204.90;2252.80;;;;;;5050398;28;20053;-60
2023/02/04 03:18:08;;;;;;;11.05;5.28;;;204.80;2252.80;;;;;;5050592;28;20112;-60
2023/02/04 03:20:34;;;;;;;87.00;45.10;;;180.10;2252.80;;;;;;5050544;28;20356;-59
2023/02/04 03:23:00;;;;;;;69.97;39.65;;;180.10;2252.80;;;;;;5050105;28;20037;-65
2023/02/04 03:25:27;;;;;;;19.38;10.63;;;180.10;2252.80;;;;;;5050482;28;20028;-59
2023/02/04 03:27:54;;;;;;;10.32;6.32;;;180.10;2252.80;;;;;;5050672;28;20063;-59
2023/02/04 03:30:21;;;;;;;6.10;3.40;;;204.80;2252.80;;;;;;5050263;28;20403;-60
2023/02/04 03:32:46;;;;;;;6.88;2.50;;;204.90;2252.80;;;;;;5050468;28;20029;-59
2023/02/04 03:35:12;;;;;;;9.77;3.83;;;204.80;2252.80;;;;;;5050398;28;20467;-64
2023/02/04 03:37:38;;;;;;;6.40;3.67;;;204.80;2252.80;;;;;;5050336;28;20029;-59
2023/02/04 03:40:04;;;;;;;7.45;3.17;;;204.80;2252.80;;;;;;5050335;28;20025;-67
2023/02/04 03:42:30;;;;;;;5.05;3.53;;;204.80;2252.80;;;;;;5050324;28;20421;-67
2023/02/04 03:44:56;;;;;;;14.60;10.00;;;180.10;2252.80;;;;;;5050270;28;20028;-67
2023/02/04 03:47:21;;;;;;;4.25;2.58;;;180.10;2252.80;;;;;;5049984;28;20029;-66
2023/02/04 03:49:47;;;;;;;9.32;4.35;;;204.80;2252.80;;;;;;5050096;28;20044;-60
2023/02/04 03:52:13;;;;;;;6.88;4.82;;;204.80;2252.80;;;;;;5051977;28;20025;-59
2023/02/04 03:54:38;;;;;;;5.38;3.33;;;204.80;2252.80;;;;;;5054183;28;20029;-60
2023/02/04 03:57:04;;;;;;;4.75;2.60;;;204.80;2252.80;;;;;;5054265;28;20028;-59
2023/02/04 03:59:30;;;;;;;5.85;2.85;;;204.80;2252.80;;;;;;5054121;28;20028;-64
2023/02/04 04:01:55;;;;;;;4.40;2.58;;;204.80;2252.80;;;;;;5053925;28;20037;-68
2023/02/04 04:04:21;;;;;;;7.43;4.38;;;204.90;2252.80;;;;;;5053771;28;20025;-64
2023/02/04 04:06:47;;;;;;;6.35;2.95;;;204.90;2252.80;;;;;;5054103;28;20028;-67
2023/02/04 04:09:12;;;;;;;11.55;7.63;;;204.80;2252.80;;;;;;5053973;28;20036;-64
2023/02/04 04:11:38;;;;;;;4.93;2.60;;;204.90;2252.80;;;;;;5053699;28;20061;-60
2023/02/04 04:14:04;;;;;;;10.93;5.65;;;205.00;2252.80;;;;;;5054360;28;20108;-59
2023/02/04 04:16:29;;;;;;;4.55;3.70;;;204.90;2252.80;;;;;;5053729;28;20020;-59
2023/02/04 04:18:55;;;;;;;8.18;3.75;;;204.90;2252.80;;;;;;5053905;28;20064;-67
2023/02/04 04:21:21;;;;;;;10.70;5.55;;;204.90;2252.80;;;;;;5053426;28;20033;-60
2023/02/04 04:23:47;;;;;;;7.00;2.47;;;204.80;2252.80;;;;;;5054034;28;20029;-68
2023/02/04 04:26:12;;;;;;;10.15;5.00;;;204.80;2252.80;;;;;;5053781;28;20071;-67
2023/02/04 04:28:38;;;;;;;8.38;3.25;;;204.90;2252.80;;;;;;5053652;28;20025;-60
2023/02/04 04:31:04;;;;;;;6.40;2.97;;;204.80;2252.80;;;;;;5053642;28;20516;-60
2023/02/04 04:33:29;;;;;;;12.52;6.88;;;180.10;2252.80;;;;;;5053404;28;20060;-59
2023/02/04 04:35:55;;;;;;;10.32;5.43;;;180.00;2252.80;;;;;;5053554;28;20097;-67
2023/02/04 04:38:21;;;;;;;8.05;3.33;;;179.90;2252.80;;;;;;5053761;28;20024;-59
2023/02/04 04:40:47;;;;;;;21.38;15.10;;;179.90;2252.80;;;;;;5053602;28;20021;-64
2023/02/04 04:43:12;;;;;;;6.38;2.50;;;180.00;2252.80;;;;;;5053255;28;20127;-60
2023/02/04 04:45:38;;;;;;;4.93;3.35;;;179.90;2252.80;;;;;;5053145;28;20025;-60
2023/02/04 04:48:04;;;;;;;12.93;6.22;;;179.80;2252.80;;;;;;5053503;28;20021;-60
2023/02/04 04:50:29;;;;;;;8.27;3.17;;;179.80;2252.80;;;;;;5053141;28;20076;-59
2023/02/04 04:52:55;;;;;;;10.45;4.38;;;179.80;2252.80;;;;;;5053006;28;20032;-66
2023/02/04 04:55:21;;;;;;;32.40;16.45;;;179.80;2252.80;;;;;;5052967;28;20375;-66
2023/02/04 04:57:46;;;;;;;14.63;3.53;;;179.80;2252.80;;;;;;5053001;28;20029;-63
2023/02/04 05:00:17;;;;;;;32.22;15.82;;;180.00;2252.80;;;;;;5053002;28;20379;-61
2023/02/04 05:02:43;;;;;;;8.98;3.42;;;179.90;2252.80;;;;;;5052707;28;20501;-59
2023/02/04 05:05:10;;;;;;;126.68;53.67;;;179.90;2252.80;;;;;;5052832;28;20025;-59
2023/02/04 05:07:35;;;;;;;54.55;21.88;;;179.80;2252.80;;;;;;5053090;28;20027;-59
2023/02/04 05:10:03;;;;;;;40.50;19.42;;;179.70;2252.80;;;;;;5052872;28;20414;-68
2023/02/04 05:12:28;;;;;;;68.45;34.47;;;179.90;2252.80;;;;;;5052504;28;20072;-59
2023/02/04 05:14:54;;;;;;;18.23;8.88;;;179.80;2252.80;;;;;;5052926;28;20029;-67
2023/02/04 05:17:20;;;;;;;70.43;32.45;;;179.90;2252.80;;;;;;5052573;28;20032;-60
2023/02/04 05:19:46;;;;;;;6.72;3.05;;;179.90;2252.80;;;;;;5052820;28;20104;-59
2023/02/04 05:22:11;;;;;;;23.35;11.00;;;179.80;2252.80;;;;;;5052571;28;20123;-68
2023/02/04 05:24:37;;;;;;;29.92;14.57;;;179.70;2252.80;;;;;;5052429;28;20618;-66
2023/02/04 05:27:03;;;;;;;8.20;3.58;;;179.70;2252.80;;;;;;5052673;28;20105;-67
2023/02/04 05:29:28;;;;;;;5.03;2.75;;;179.90;2252.80;;;;;;5052366;28;20025;-66
2023/02/04 05:31:54;;;;;;;5.78;3.03;;;179.80;2252.80;;;;;;5052490;28;20474;-68
2023/02/04 05:34:20;;;;;;;14.23;6.85;;;179.70;2252.80;;;;;;5052269;28;20025;-60
2023/02/04 05:36:45;;;;;;;6.55;2.55;;;179.80;2252.80;;;;;;5052541;28;20029;-59
2023/02/04 05:39:11;;;;;;;7.05;2.10;;;179.90;2252.80;;;;;;5052064;28;20510;-59
2023/02/04 05:41:37;;;;;;;6.43;2.13;;;179.70;2252.80;;;;;;5052088;28;20036;-60
2023/02/04 05:44:03;;;;;;;11.27;4.50;;;179.60;2252.80;;;;;;5051959;28;20044;-59
2023/02/04 05:46:28;;;;;;;4.93;2.30;;;179.50;2252.80;;;;;;5052191;28;20074;-59
2023/02/04 05:48:54;;;;;;;12.38;3.58;;;179.60;2252.80;;;;;;5051859;28;20060;-59
2023/02/04 05:51:19;;;;;;;7.22;2.97;;;179.60;2252.80;;;;;;5051974;28;20071;-66
2023/02/04 05:53:45;;;;;;;9.32;4.13;;;179.60;2252.80;;;;;;5052331;28;20068;-59
2023/02/04 05:56:11;;;;;;;22.17;10.63;;;179.60;2252.80;;;;;;5051948;28;20021;-62
2023/02/04 05:58:36;;;;;;;10.73;4.15;;;179.70;2252.80;;;;;;5051944;28;20418;-67
2023/02/04 06:01:03;;;;;;;8.70;4.72;;;179.60;2252.80;;;;;;5051463;28;20053;-58
2023/02/04 06:03:30;;;;;;;39.97;18.00;;;179.70;2252.80;;;;;;5051653;28;20470;-59
2023/02/04 06:05:56;;;;;;;19.30;11.50;;;179.70;2252.80;;;;;;5051616;28;20100;-66
2023/02/04 06:08:22;;;;;;;51.45;28.02;;;179.70;2252.80;;;;;;5051417;28;20036;-64
2023/02/04 06:10:48;;;;;;;41.20;23.48;;;179.60;2252.80;;;;;;5051845;28;20021;-58
2023/02/04 06:13:14;;;;;;;35.30;20.38;;;179.60;2252.80;;;;;;5051589;28;20025;-59
2023/02/04 06:15:39;;;;;;;26.45;15.48;;;179.70;2252.80;;;;;;5050845;28;20102;-59
2023/02/04 06:18:06;;;;;;;12.13;6.32;;;179.70;2252.80;;;;;;5051584;28;20360;-63
2023/02/04 06:20:31;;;;;;;8.65;4.57;;;179.70;2252.80;;;;;;5051530;28;20029;-59
2023/02/04 06:22:57;;;;;;;9.82;5.22;;;179.60;2252.80;;;;;;5051409;28;20044;-59
2023/02/04 06:25:23;;;;;;;9.90;7.95;;;179.60;2252.80;;;;;;5051540;28;20114;-59
2023/02/04 06:27:49;;;;;;;13.60;6.75;;;179.70;2252.80;;;;;;5051093;28;20029;-61
2023/02/04 06:30:15;;;;;;;9.60;6.70;;;179.70;2252.80;;;;;;5051281;28;20021;-67
2023/02/04 06:32:41;;;;;;;18.17;4.93;;;179.70;2252.80;;;;;;5051335;28;20021;-66
2023/02/04 06:35:07;;;;;;;10.52;5.00;;;179.70;2252.80;;;;;;5051392;28;20029;-59
2023/02/04 06:37:33;;;;;;;5.50;3.40;;;179.70;2252.80;;;;;;5033297;28;20443;-60
2023/02/04 06:39:59;;;;;;;7.57;3.22;;;179.50;2252.80;;;;;;5031064;28;20067;-64
2023/02/04 06:42:25;;;;;;;8.65;3.35;;;179.50;2252.80;;;;;;5031306;28;20065;-59
2023/02/04 06:44:51;;;;;;;5.32;2.72;;;179.40;2252.80;;;;;;5030893;28;20411;-59
2023/02/04 06:47:18;;;;;;;10.05;3.63;;;179.50;2252.80;;;;;;5031178;28;20026;-58
2023/02/04 06:49:44;;;;;;;7.38;3.60;;;179.40;2252.80;;;;;;5030751;28;20132;-59
2023/02/04 06:52:09;;;;;;;9.00;3.42;;;179.40;2252.80;;;;;;5030931;28;20045;-59
2023/02/04 06:54:36;;;;;;;16.80;8.02;;;179.40;2252.80;;;;;;5030998;28;20501;-59
2023/02/04 06:57:07;;;;;;;7.57;3.72;;;179.40;2252.80;;;;;;5030812;28;20197;-59
2023/02/04 06:59:35;;;;;;;4.72;2.70;;;154.50;2252.80;;;;;;5030784;28;20021;-67
2023/02/04 07:02:01;;;;;;;11.40;4.75;;;179.20;2252.80;;;;;;5030753;28;20411;-58
2023/02/04 07:04:27;;;;;;;5.45;3.42;;;154.50;2252.80;;;;;;5030930;28;20021;-59
2023/02/04 07:06:52;;;;;;;18.23;10.57;;;179.20;2252.80;;;;;;5030920;28;20053;-61
2023/02/04 07:09:18;;;;;;;6.82;4.43;;;179.20;2252.80;;;;;;5030615;28;20535;-63
2023/02/04 07:11:44;;;;;;;7.28;5.07;;;154.50;2252.80;;;;;;5030907;28;20100;-59
2023/02/04 07:14:09;;;;;;;9.90;5.50;;;154.50;2252.80;;;;;;5030525;28;20403;-60
2023/02/04 07:16:36;;;;;;;10.00;4.68;;;154.50;2252.80;;;;;;5030956;28;20021;-59
2023/02/04 07:19:02;;;;;;;8.05;4.50;;;154.50;2252.80;;;;;;5030509;28;20036;-59
2023/02/04 07:21:27;;;;;;;30.90;16.38;;;154.40;2252.80;;;;;;5030254;28;20033;-63
2023/02/04 07:23:53;;;;;;;95.65;51.10;;;154.50;2252.80;;;;;;5030757;28;20072;-59
2023/02/04 07:26:19;;;;;;;13.88;6.90;;;154.50;2252.80;;;;;;5030400;28;20051;-67
2023/02/04 07:28:44;;;;;;;16.65;7.95;;;154.50;2252.80;;;;;;5030773;28;20076;-59
2023/02/04 07:31:10;;;;;;;128.23;90.35;;;154.50;2252.80;;;;;;5030274;28;20060;-59
2023/02/04 07:33:36;;;;;;;16.45;8.77;;;154.50;2252.80;;;;;;5030308;28;20021;-59
2023/02/04 07:36:01;;;;;;;8.77;6.45;;;179.20;2252.80;;;;;;5030588;28;20595;-60
2023/02/04 07:38:27;;;;;;;45.63;27.45;;;179.20;2252.80;;;;;;5030474;28;20087;-64
2023/02/04 07:40:53;;;;;;;7.57;4.68;;;179.30;2252.80;;;;;;5030395;28;20068;-59
2023/02/04 07:43:19;;;;;;;8.18;5.18;;;179.20;2252.80;;;;;;5030259;28;20052;-62
2023/02/04 07:45:44;;;;;;;9.52;4.13;;;154.50;2252.80;;;;;;5030132;28;20030;-59
2023/02/04 07:48:10;;;;;;;11.02;8.98;;;154.50;2252.80;;;;;;5030059;28;20074;-59
2023/02/04 07:50:36;;;;;;;7.68;5.15;;;154.50;2252.80;;;;;;5030245;28;20046;-59
2023/02/04 07:53:02;;;;;;;8.35;5.32;;;154.40;2252.80;;;;;;5029921;28;20029;-60
2023/02/04 07:55:28;;;;;;;5.32;3.97;;;154.40;2252.80;;;;;;5030112;28;20029;-59
2023/02/04 07:57:54;;;;;;;8.40;4.97;;;154.40;2252.80;;;;;;5030203;28;20026;-60
2023/02/04 08:00:20;;;;;;;5.45;2.92;;;154.40;2252.80;;;;;;5029967;28;20037;-58
2023/02/04 08:02:46;;;;;;;22.20;15.07;;;154.40;2252.80;;;;;;5030391;28;20038;-65
2023/02/04 08:05:12;;;;;;;14.52;7.88;;;154.50;2252.80;;;;;;5029770;28;20084;-60
2023/02/04 08:07:38;;;;;;;35.63;20.27;;;154.50;2252.80;;;;;;5030205;28;20060;-59
2023/02/04 08:10:05;;;;;;;6.35;3.55;;;179.20;2252.80;;;;;;5030108;28;20075;-59
2023/02/04 08:12:31;;;;;;;26.02;15.25;;;179.30;2252.80;;;;;;5030002;28;20021;-59
2023/02/04 08:14:58;;;;;;;13.85;8.63;;;179.30;2252.80;;;;;;5029941;28;20036;-59
2023/02/04 08:17:23;;;;;;;7.15;3.90;;;179.20;2252.80;;;;;;5030026;28;20049;-59
2023/02/04 08:19:49;;;;;;;25.70;16.63;;;179.20;2252.80;;;;;;5029978;28;20510;-58
2023/02/04 08:22:15;;;;;;;56.78;32.10;;;179.30;2252.80;;;;;;5029957;28;20038;-59
2023/02/04 08:24:41;;;;;;;46.05;25.83;;;179.40;2252.80;;;;;;5029930;28;20033;-59
2023/02/04 08:27:06;;;;;;;156.55;92.20;;;179.60;2252.80;;;;;;5030204;28;21005;-59
2023/02/04 08:29:32;;;;;;;63.72;39.67;;;179.60;2252.80;;;;;;5030083;28;20030;-60
2023/02/04 08:31:58;;;;;;;34.85;22.70;;;179.80;2252.80;;;;;;5029751;28;20029;-63
2023/02/04 08:34:23;;;;;;;15.02;9.73;;;179.90;2252.80;;;;;;5029809;28;20053;-59
2023/02/04 08:36:49;;;;;;;38.75;24.88;;;180.00;2252.80;;;;;;5029647;28;20463;-63
2023/02/04 08:39:15;;;;;;;93.50;57.78;;;180.00;2252.80;;;;;;5032811;28;20036;-60
2023/02/04 08:41:40;;;;;;;41.05;28.25;;;204.80;2252.80;;;;;;5033238;28;20429;-58
2023/02/04 08:44:06;;;;;;;118.85;81.47;;;205.70;2252.80;;;;;;5033653;28;20033;-59
2023/02/04 08:46:32;;;;;;;56.70;39.58;;;256.50;2252.80;;;;;;5033232;28;20026;-60
2023/02/04 08:48:57;;;;;;;33.50;24.63;;;256.80;2252.80;;;;;;5032726;28;20404;-60
2023/02/04 08:51:23;;;;;;;15.93;11.35;;;256.70;2252.80;;;;;;5033285;28;20036;-62
2023/02/04 08:53:49;;;;;;;18.90;12.43;;;282.20;2278.40;;;;;;5033185;28;20476;-60
2023/02/04 08:56:16;;;;;;;16.52;11.57;;;281.80;2278.40;;;;;;5033261;28;20028;-64
2023/02/04 08:58:43;;;;;;;12.95;9.15;;;256.70;2252.80;;;;;;5033224;28;20392;-61
2023/02/04 09:01:10;;;;;;;55.22;33.63;;;231.30;2252.80;;;;;;5032992;28;20031;-66
2023/02/04 09:03:36;;;;;;;31.60;22.50;;;231.10;2252.80;;;;;;5037867;28;20056;-66
2023/02/04 09:06:03;;;;;;;51.22;31.48;;;256.30;2252.80;;;;;;5041998;28;20056;-62
2023/02/04 09:08:28;;;;;;;12.00;7.63;;;256.60;2252.80;;;;;;5041636;28;20100;-60
2023/02/04 09:10:54;;;;;;;3.78;2.25;;;281.70;2278.40;;;;;;5045864;28;20109;-60
2023/02/04 09:13:20;;;;;;;37.38;27.05;;;256.40;2252.80;;;;;;5040667;28;20075;-59
2023/02/04 09:15:45;;;;;;;11.50;7.13;;;256.00;2252.80;;;;;;5041567;28;20027;-67
2023/02/04 09:18:16;;;;;;;8.70;5.40;;;231.20;2252.80;;;;;;5042057;28;20388;-66
2023/02/04 09:20:44;;;;;;;5.70;3.80;;;231.00;2252.80;;;;;;5040903;28;20022;-65
2023/02/04 09:23:12;;;;;;;11.88;7.95;;;230.80;2252.80;;;;;;5040229;28;20029;-58
2023/02/04 09:25:41;;;;;;;6.50;3.85;;;230.90;2252.80;;;;;;5048372;28;20040;-62
2023/02/04 09:28:11;;;;;;;11.43;10.38;;;230.80;2252.80;;;;;;5051141;28;20560;-61
2023/02/04 09:30:38;;;;;;;8.98;6.38;;;230.80;2252.80;;;;;;5051007;28;20527;-61
2023/02/04 09:33:04;;;;;;;8.52;4.15;;;231.10;2252.80;;;;;;5051240;28;20021;-65
2023/02/04 09:35:30;;;;;;;16.92;11.90;;;231.20;2252.80;;;;;;5050605;28;20021;-60
2023/02/04 09:37:55;;;;;;;4.82;3.03;;;230.90;2252.80;;;;;;5051218;28;20112;-62
2023/02/04 09:40:22;;;;;;;7.18;5.25;;;230.60;2252.80;;;;;;5050909;28;20463;-60
2023/02/04 09:42:50;;;;;;;7.22;2.70;;;230.40;2252.80;;;;;;5050631;28;20033;-61
2023/02/04 09:45:32;;;;;;;10.55;6.95;;;205.60;2252.80;;;;;;5050876;28;20093;-60
2023/02/04 09:47:59;;;;;;;39.22;25.10;;;205.40;2252.80;;;;;;5048026;28;20051;-60
2023/02/04 09:50:27;;;;;;;11.98;7.80;;;205.20;2252.80;;;;;;5049469;28;20068;-59
2023/02/04 09:52:56;;;;;;;13.93;7.55;;;180.00;2252.80;;;;;;5050473;28;20041;-59
2023/02/04 09:55:28;;;;;;;6.25;3.55;;;179.40;2252.80;;;;;;5032847;28;20543;-67
2023/02/04 09:57:54;;;;;;;5.60;2.45;;;154.40;2252.80;;;;;;5050390;28;20074;-62
2023/02/04 10:00:22;;;;;;;6.68;3.83;;;154.30;2252.80;;;;;;5050960;28;20096;-67
2023/02/04 10:02:48;;;;;;;7.18;1.55;;;154.50;2252.80;;;;;;5051633;28;20043;-67
2023/02/04 10:05:36;;;;;;;3.78;1.70;;;154.50;2252.80;;;;;;5044292;28;20021;-59
2023/02/04 10:08:04;;;;;;;4.82;1.85;;;154.50;2252.80;;;;;;5041060;28;20475;-65
2023/02/04 10:10:30;;;;;;;4.13;2.20;;;154.50;2252.80;;;;;;5041167;28;20486;-64
2023/02/04 10:13:02;;;;;;;3.20;1.80;;;154.40;2252.80;;;;;;5042238;28;20142;-60
2023/02/04 10:15:28;;;;;;;4.63;2.55;;;154.40;2252.80;;;;;;5041511;28;20025;-59
2023/02/04 10:18:00;;;;;;;11.52;6.00;;;154.50;2252.80;;;;;;5039883;28;20032;-59
2023/02/04 10:20:26;;;;;;;3.67;2.20;;;179.20;2252.80;;;;;;5035567;28;20468;-65
2023/02/04 10:22:54;;;;;;;3.97;2.25;;;179.30;2252.80;;;;;;5031186;28;20128;-64
2023/02/04 10:25:22;;;;;;;4.47;2.40;;;179.20;2252.80;;;;;;5031224;28;20037;-66
2023/02/04 10:27:52;;;;;;;5.03;2.83;;;179.20;2252.80;;;;;;5031197;28;20029;-61
2023/02/04 10:30:21;;;;;;;2.90;1.95;;;179.60;2252.80;;;;;;5031168;28;20021;-61
2023/02/04 10:32:48;;;;;;;6.85;4.85;;;179.50;2252.80;;;;;;5031565;28;20021;-63
2023/02/04 10:35:15;;;;;;;3.30;2.40;;;179.80;2252.80;;;;;;5031254;28;20053;-65
2023/02/04 10:37:41;;;;;;;3.20;2.10;;;205.10;2252.80;;;;;;5031173;28;20036;-61
2023/02/04 10:40:25;;;;;;;4.28;2.00;;;205.20;2252.80;;;;;;5031138;28;20037;-64
2023/02/04 10:42:52;;;;;;;3.70;2.05;;;204.90;2252.80;;;;;;5031135;28;20103;-65
2023/02/04 10:45:27;;;;;;;3.13;1.85;;;180.10;2252.80;;;;;;5031183;28;20472;-67
2023/02/04 10:47:54;;;;;;;3.70;1.92;;;179.80;2252.80;;;;;;5031155;28;20587;-61
2023/02/04 10:50:25;;;;;;;5.68;3.60;;;179.70;2252.80;;;;;;5043796;28;20063;-64
2023/02/04 10:55:43;;;;;;;3.50;2.53;;;179.40;2252.80;;;;;;5050799;28;20059;-66
2023/02/04 10:58:12;;;;;;;5.05;3.35;;;179.20;2252.80;;;;;;5046375;28;20088;-61
2023/02/04 11:00:39;;;;;;;6.25;3.58;;;179.20;2252.80;;;;;;5039613;28;20080;-62
2023/02/04 11:03:18;;;;;;;15.98;10.00;;;179.30;2252.80;;;;;;5039921;28;20053;-60
2023/02/04 11:05:44;;;;;;;26.38;13.38;;;179.30;2252.80;;;;;;5037769;28;20483;-61
2023/02/04 11:08:35;;;;;;;6.90;3.50;;;179.30;2252.80;;;;;;5038710;28;20177;-68
2023/02/04 11:11:05;;;;;;;103.80;59.30;;;179.30;2252.80;;;;;;5042794;28;20096;-68
2023/02/04 11:13:49;;;;;;;10.88;4.80;;;179.30;2252.80;;;;;;5040752;28;20053;-63
2023/02/04 11:16:17;;;;;;;6.53;4.82;;;179.20;2252.80;;;;;;5029831;28;20025;-67
2023/02/04 11:18:51;;;;;;;19.45;10.23;;;154.50;2252.80;;;;;;5030593;28;20030;-61
2023/02/04 11:21:29;;;;;;;8.20;5.35;;;154.50;2252.80;;;;;;5030321;28;20538;-68
2023/02/04 11:24:12;;;;;;;8.45;4.10;;;154.50;2252.80;;;;;;5030546;28;20033;-68
2023/02/04 11:26:42;;;;;;;14.60;11.25;;;154.20;2252.80;;;;;;5030099;28;20029;-61
2023/02/04 11:29:14;;;;;;;13.50;8.80;;;154.10;2252.80;;;;;;5035986;28;20032;-61
2023/02/04 11:31:48;;;;;;;14.27;9.43;;;154.00;2252.80;;;;;;5031104;28;20064;-61
2023/02/04 11:34:14;;;;;;;15.50;9.13;;;153.90;2252.80;;;;;;5030355;28;20025;-61
2023/02/04 11:36:58;;;;;;;7.72;3.60;;;154.10;2252.80;;;;;;5032792;28;20033;-61
2023/02/04 11:39:27;;;;;;;12.77;8.30;;;153.90;2252.80;;;;;;5049349;28;20033;-61
2023/02/04 11:41:53;;;;;;;8.10;5.10;;;153.90;2252.80;;;;;;5041762;28;20051;-61
2023/02/04 11:44:20;;;;;;;10.82;5.35;;;154.00;2252.80;;;;;;5035191;28;20030;-65
2023/02/04 11:46:54;;;;;;;25.15;11.90;;;154.00;2252.80;;;;;;5029848;28;20045;-64
2023/02/04 11:49:20;;;;;;;;;;;154.00;2252.80;;;;;;5034541;28;20056;-68
2023/02/04 11:51:46;;;;;;;20.73;10.50;;;154.00;2252.80;;;;;;5049543;28;19908;-62
2023/02/04 11:54:15;;;;;;;20.70;10.65;;;153.80;2252.80;;;;;;5050047;28;20124;-68
2023/02/04 11:56:41;;;;;;;20.85;10.55;;;153.80;2252.80;;;;;;5050102;28;20029;-65
2023/02/04 11:59:10;;;;;;;20.55;10.57;;;153.60;2252.80;;;;;;5050088;28;20143;-67
2023/02/04 12:01:36;;;;;;;10.23;6.63;;;153.60;2252.80;;;;;;5050114;28;20040;-68
2023/02/04 12:04:06;;;;;;;14.52;8.10;;;128.90;2252.80;;;;;;5049990;28;20457;-61
2023/02/04 12:06:36;;;;;;;9.63;5.65;;;128.80;2252.80;;;;;;5049852;28;20079;-66
2023/02/04 12:09:17;;;;;;;12.98;7.15;;;128.60;2252.80;;;;;;5049684;28;20028;-62
2023/02/04 12:11:52;;;;;;;20.65;10.40;;;128.40;2252.80;;;;;;5050064;28;20025;-61
2023/02/04 12:14:18;;;;;;;7.60;4.90;;;128.40;2252.80;;;;;;5058387;28;20029;-62